Time;durP1;ratioP1;P1;durP2;ratioP2;P2;SDS_P1;SDS_P2;PMS_P1;PMS_P2;Temp;Humidity;BMP_temperature;BMP_pressure;BME280_temperature;BME280_humidity;BME280_pressure;Samples;Min_cycle;Max_cycle;Signal;HPM_P1;HPM_P2
2022/05/04 00:01:39;;;;;;;5.90;3.70;;;;;;;9.55;66.09;101125.31;5094335;28;20247;-84
2022/05/04 00:04:06;;;;;;;5.03;3.13;;;;;;;9.51;66.28;101130.88;5092878;28;20218;-84
2022/05/04 00:06:33;;;;;;;5.30;3.30;;;;;;;9.49;66.20;101133.66;5094756;28;20208;-84
2022/05/04 00:08:59;;;;;;;5.00;3.03;;;;;;;9.47;66.76;101132.84;5094014;28;20224;-85
2022/05/04 00:11:26;;;;;;;7.23;3.47;;;;;;;9.42;66.34;101139.34;5088867;28;20212;-84
2022/05/04 00:13:54;;;;;;;4.37;3.27;;;;;;;9.32;66.60;101137.13;5085020;28;20228;-85
2022/05/04 00:16:20;;;;;;;4.20;3.00;;;;;;;9.25;66.28;101137.53;5086527;28;20232;-85
2022/05/04 00:18:47;;;;;;;4.70;3.20;;;;;;;9.21;66.24;101142.13;5086752;28;20205;-85
2022/05/04 00:21:14;;;;;;;5.70;3.13;;;;;;;9.17;66.66;101137.91;5091000;28;20210;-83
2022/05/04 00:23:40;;;;;;;7.70;4.00;;;;;;;9.14;66.73;101145.16;5085488;28;20211;-84
2022/05/04 00:26:07;;;;;;;5.90;4.23;;;;;;;9.13;67.27;101148.78;5088079;28;20299;-84
2022/05/04 00:28:33;;;;;;;6.27;3.57;;;;;;;9.09;66.62;101141.88;5092363;28;20656;-84
2022/05/04 00:31:01;;;;;;;5.73;3.37;;;;;;;9.06;67.43;101145.56;5083040;28;20211;-84
2022/05/04 00:33:28;;;;;;;6.33;3.23;;;;;;;9.04;66.81;101144.75;5094820;28;20287;-84
2022/05/04 00:35:54;;;;;;;9.53;4.07;;;;;;;9.02;67.80;101133.34;5091445;28;20812;-84
2022/05/04 00:38:21;;;;;;;8.50;4.47;;;;;;;9.03;67.37;101132.41;5094015;28;20211;-85
2022/05/04 00:40:47;;;;;;;8.70;4.17;;;;;;;9.03;67.19;101137.72;5094193;28;20204;-84
2022/05/04 00:43:22;;;;;;;6.83;4.30;;;;;;;9.02;67.92;101136.00;5103498;28;20540;-86
2022/05/04 00:45:49;;;;;;;11.93;4.03;;;;;;;9.01;67.75;101136.94;5105333;28;20198;-86
2022/05/04 00:48:17;;;;;;;8.23;4.37;;;;;;;9.00;67.61;101137.88;5094153;28;20192;-86
2022/05/04 00:50:44;;;;;;;7.07;3.97;;;;;;;8.99;67.93;101142.31;5093566;28;20587;-86
2022/05/04 00:53:11;;;;;;;8.67;4.63;;;;;;;8.97;67.25;101138.88;5092226;28;20234;-87
2022/05/04 00:55:38;;;;;;;4.83;3.63;;;;;;;8.97;67.75;101140.69;5093353;28;20231;-86
2022/05/04 01:00:51;;;;;;;8.60;4.80;;;;;;;8.94;67.64;101136.41;5104596;28;20207;-86
2022/05/04 01:03:19;;;;;;;8.47;4.10;;;;;;;8.94;68.08;101143.50;5095776;28;20626;-85
2022/05/04 01:05:46;;;;;;;7.87;4.03;;;;;;;8.91;67.43;101138.34;5098914;28;20212;-83
2022/05/04 01:08:12;;;;;;;6.87;4.10;;;;;;;8.86;66.76;101130.59;5093020;28;20215;-84
2022/05/04 01:10:39;;;;;;;5.80;3.40;;;;;;;8.80;67.02;101130.00;5096598;28;20224;-84
2022/05/04 01:13:05;;;;;;;8.23;4.47;;;;;;;8.75;67.28;101143.53;5097298;28;20214;-84
2022/05/04 01:15:32;;;;;;;7.17;4.10;;;;;;;8.70;66.85;101142.88;5097726;28;20279;-84
2022/05/04 01:17:59;;;;;;;7.97;4.07;;;;;;;8.64;67.53;101145.81;5097270;28;20211;-84
2022/05/04 01:20:27;;;;;;;6.47;4.30;;;;;;;8.58;67.30;101144.34;5102318;28;20191;-84
2022/05/04 01:22:55;;;;;;;9.80;4.60;;;;;;;8.54;67.22;101145.41;5118498;28;20654;-84
2022/05/04 01:25:22;;;;;;;10.93;4.40;;;;;;;8.52;68.47;101144.63;5114323;28;20269;-83
2022/05/04 01:27:48;;;;;;;8.20;4.10;;;;;;;8.51;68.09;101150.84;5104059;28;20225;-83
2022/05/04 01:30:15;;;;;;;9.53;4.73;;;;;;;8.50;68.61;101143.81;5097301;28;20223;-84
2022/05/04 01:32:41;;;;;;;11.03;4.37;;;;;;;8.49;67.94;101151.84;5096807;28;20208;-84
2022/05/04 01:35:08;;;;;;;10.07;4.37;;;;;;;8.45;68.63;101148.47;5090629;28;20238;-84
2022/05/04 01:37:35;;;;;;;11.03;5.10;;;;;;;8.44;68.70;101143.22;5096913;28;20193;-85
2022/05/04 01:40:03;;;;;;;10.07;4.73;;;;;;;8.41;68.79;101151.38;5077464;28;20209;-84
2022/05/04 01:42:30;;;;;;;7.60;4.77;;;;;;;8.38;69.41;101149.72;5087707;28;20208;-84
2022/05/04 01:44:56;;;;;;;12.63;5.27;;;;;;;8.37;68.73;101149.78;5095830;28;20216;-84
2022/05/04 01:47:23;;;;;;;8.63;5.20;;;;;;;8.33;69.27;101159.66;5096567;28;20684;-84
2022/05/04 01:49:49;;;;;;;8.60;4.90;;;;;;;8.30;69.02;101152.66;5097122;28;20215;-84
2022/05/04 01:52:16;;;;;;;12.40;4.90;;;;;;;8.28;69.27;101149.22;5096582;28;20208;-84
2022/05/04 01:54:42;;;;;;;9.80;5.33;;;;;;;8.27;69.64;101150.16;5096439;28;20220;-84
2022/05/04 01:57:11;;;;;;;7.53;4.83;;;;;;;8.24;69.50;101152.94;5092738;28;20204;-84
2022/05/04 01:59:37;;;;;;;9.77;5.17;;;;;;;8.21;69.48;101150.44;5101345;28;20196;-84
2022/05/04 02:02:07;;;;;;;7.93;5.20;;;;;;;8.18;69.52;101147.94;5104126;28;20282;-85
2022/05/04 02:04:33;;;;;;;11.13;5.97;;;;;;;8.16;69.28;101154.22;5117647;28;20223;-84
2022/05/04 02:07:01;;;;;;;10.70;5.53;;;;;;;8.13;69.92;101149.94;5107660;28;20212;-83
2022/05/04 02:09:28;;;;;;;9.70;5.17;;;;;;;8.12;69.99;101153.50;5096482;28;20231;-84
2022/05/04 02:11:54;;;;;;;13.03;5.97;;;;;;;8.11;70.37;101140.31;5096946;28;20246;-85
2022/05/04 02:14:22;;;;;;;10.47;5.80;;;;;;;8.10;70.71;101143.88;5095900;28;20226;-84
2022/05/04 02:16:49;;;;;;;9.57;5.80;;;;;;;8.09;70.65;101142.16;5094112;28;20838;-84
2022/05/04 02:19:15;;;;;;;13.13;5.60;;;;;;;8.09;70.12;101142.16;5094754;28;20852;-85
2022/05/04 02:21:42;;;;;;;8.20;5.53;;;;;;;8.05;70.69;101137.97;5094809;28;20201;-84
2022/05/04 02:24:08;;;;;;;8.13;5.37;;;;;;;8.06;71.33;101145.00;5096132;28;20235;-85
2022/05/04 02:26:35;;;;;;;11.00;5.97;;;;;;;8.03;71.19;101148.63;5096111;28;20208;-85
2022/05/04 02:29:01;;;;;;;11.30;6.47;;;;;;;8.02;70.53;101144.25;5094339;28;20200;-85
2022/05/04 02:31:29;;;;;;;13.23;6.30;;;;;;;7.99;70.70;101139.94;5098690;28;20393;-85
2022/05/04 02:33:56;;;;;;;9.53;5.60;;;;;;;7.96;71.00;101140.06;5095066;28;20677;-84
2022/05/04 02:39:06;;;;;;;9.53;6.47;;;;;;;7.84;70.21;101145.06;5092732;28;20196;-85
2022/05/04 02:41:33;;;;;;;8.50;5.20;;;;;;;7.72;69.89;101145.59;5096071;28;20204;-85
2022/05/04 02:44:00;;;;;;;8.43;4.47;;;;;;;7.61;70.04;101146.94;5095038;28;20250;-84
2022/05/04 02:46:29;;;;;;;9.00;5.33;;;;;;;7.52;70.42;101146.47;5095020;28;20639;-85
2022/05/04 02:48:56;;;;;;;8.97;5.30;;;;;;;7.46;70.54;101144.09;5095859;28;20204;-85
2022/05/04 02:51:23;;;;;;;11.00;5.57;;;;;;;7.43;70.75;101141.56;5096320;28;20223;-85
2022/05/04 02:53:50;;;;;;;6.10;4.73;;;;;;;7.40;70.45;101145.19;5096298;28;20227;-85
2022/05/04 02:56:16;;;;;;;10.10;5.63;;;;;;;7.38;70.81;101140.88;5095176;28;20204;-83
2022/05/04 02:58:43;;;;;;;12.93;5.83;;;;;;;7.35;70.73;101143.66;5095261;28;20196;-84
2022/05/04 03:03:52;;;;;;;8.93;4.93;;;;;;;7.28;71.26;101145.72;5094969;28;20289;-84
2022/05/04 03:06:19;;;;;;;7.00;5.20;;;;;;;7.22;70.75;101130.06;5095247;28;20685;-84
2022/05/04 03:08:45;;;;;;;8.23;4.77;;;;;;;7.17;70.99;101140.84;5094763;28;20199;-85
2022/05/04 03:13:56;;;;;;;9.10;5.27;;;;;;;7.04;70.97;101129.03;5094861;28;20301;-85
2022/05/04 03:16:23;;;;;;;8.67;5.60;;;;;;;6.97;70.69;101136.41;5093154;28;20680;-84
2022/05/04 03:18:49;;;;;;;7.97;5.20;;;;;;;6.84;70.95;101136.94;5094699;28;20204;-85
2022/05/04 03:21:17;;;;;;;11.33;5.13;;;;;;;6.74;70.92;101138.22;5094728;28;20580;-84
2022/05/04 03:23:43;;;;;;;10.47;5.70;;;;;;;6.68;71.87;101139.31;5095439;28;20220;-84
2022/05/04 03:26:10;;;;;;;10.23;6.20;;;;;;;6.66;72.28;101148.25;5093662;28;20212;-83
2022/05/04 03:28:37;;;;;;;11.13;5.37;;;;;;;6.63;72.14;101140.47;5075874;28;20211;-84
2022/05/04 03:31:04;;;;;;;8.10;5.40;;;;;;;6.62;72.54;101139.59;5080645;28;20252;-84
2022/05/04 03:33:30;;;;;;;9.60;5.47;;;;;;;6.59;72.46;101139.72;5083528;28;20654;-84
2022/05/04 03:35:57;;;;;;;10.00;5.23;;;;;;;6.55;72.82;101135.44;5076618;28;20201;-84
2022/05/04 03:38:25;;;;;;;9.77;6.13;;;;;;;6.51;73.25;101136.47;5084707;28;20192;-83
2022/05/04 03:40:52;;;;;;;9.87;5.57;;;;;;;6.45;72.87;101142.03;5089302;28;20558;-82
2022/05/04 03:43:18;;;;;;;8.17;5.30;;;;;;;6.40;73.67;101136.91;5091210;28;20654;-83
2022/05/04 03:45:45;;;;;;;9.27;5.60;;;;;;;6.41;73.72;101143.06;5083394;28;20586;-82
2022/05/04 03:48:11;;;;;;;10.47;5.50;;;;;;;6.41;73.77;101143.94;5084373;28;20197;-83
2022/05/04 03:50:38;;;;;;;11.00;5.80;;;;;;;6.39;73.84;101139.59;5076140;28;20221;-82
2022/05/04 03:53:04;;;;;;;13.23;6.73;;;;;;;6.38;73.90;101138.75;5087671;28;20208;-82
2022/05/04 03:55:33;;;;;;;7.40;5.17;;;;;;;6.32;74.07;101132.81;5092256;28;20227;-82
2022/05/04 03:58:00;;;;;;;9.30;5.53;;;;;;;6.28;74.21;101132.94;5082635;28;20209;-82
2022/05/04 04:00:26;;;;;;;7.73;5.40;;;;;;;6.27;74.65;101136.50;5083310;28;20193;-83
2022/05/04 04:02:53;;;;;;;9.33;5.57;;;;;;;6.26;74.66;101134.78;5078200;28;20213;-82
2022/05/04 04:05:20;;;;;;;7.37;5.40;;;;;;;6.25;74.84;101140.13;5090792;28;20925;-82
2022/05/04 04:07:46;;;;;;;8.27;5.70;;;;;;;6.20;74.34;101134.16;5088271;28;20249;-83
2022/05/04 04:10:13;;;;;;;8.93;5.97;;;;;;;6.16;74.55;101138.69;5084961;28;20224;-82
2022/05/04 04:12:41;;;;;;;7.37;5.30;;;;;;;6.11;74.95;101134.47;5089467;28;20211;-83
2022/05/04 04:15:08;;;;;;;8.47;4.90;;;;;;;6.07;74.76;101143.47;5087063;28;20231;-82
2022/05/04 04:17:34;;;;;;;8.43;5.50;;;;;;;6.04;75.29;101133.00;5089152;28;20203;-83
2022/05/04 04:22:45;;;;;;;11.07;5.60;;;;;;;6.05;75.70;101140.00;5085567;28;20204;-81
2022/05/04 04:25:12;;;;;;;12.20;6.40;;;;;;;6.05;75.91;101135.59;5077178;28;20276;-82
2022/05/04 04:27:38;;;;;;;13.60;6.70;;;;;;;6.06;75.64;101139.97;5089913;28;20211;-83
2022/05/04 04:30:07;;;;;;;10.63;6.40;;;;;;;6.06;76.17;101137.31;5094361;28;20307;-83
2022/05/04 04:32:34;;;;;;;9.63;6.40;;;;;;;6.08;76.13;101150.50;5092280;28;20680;-83
2022/05/04 04:35:01;;;;;;;11.10;5.70;;;;;;;6.07;76.17;101149.63;5094203;28;20228;-82
2022/05/04 04:37:28;;;;;;;13.63;5.87;;;;;;;6.04;76.02;101146.22;5094378;28;20225;-81
2022/05/04 04:39:54;;;;;;;11.70;6.23;;;;;;;6.02;76.47;101156.84;5090217;28;20206;-82
2022/05/04 04:42:21;;;;;;;10.23;6.07;;;;;;;6.02;76.62;101145.41;5088169;28;20208;-82
2022/05/04 04:44:48;;;;;;;10.70;6.10;;;;;;;6.02;76.98;101159.50;5094246;28;20296;-81
2022/05/04 04:47:16;;;;;;;15.30;6.87;;;;;;;6.03;76.71;101150.66;5094452;28;20196;-83
2022/05/04 04:49:42;;;;;;;14.40;6.73;;;;;;;6.03;77.10;101148.00;5095106;28;20230;-81
2022/05/04 04:52:09;;;;;;;13.33;5.93;;;;;;;6.06;77.09;101154.97;5093267;28;20192;-82
2022/05/04 04:54:35;;;;;;;12.90;7.50;;;;;;;6.07;77.58;101149.63;5094114;28;20212;-83
2022/05/04 04:57:02;;;;;;;13.80;7.97;;;;;;;6.11;77.42;101158.28;5093322;28;20207;-82
2022/05/04 04:59:28;;;;;;;14.20;6.67;;;;;;;6.13;77.18;101159.94;5081932;28;20207;-82
2022/05/04 05:01:55;;;;;;;8.50;6.67;;;;;;;6.15;77.86;101155.47;5083745;28;20200;-82
2022/05/04 05:04:23;;;;;;;10.80;6.27;;;;;;;6.18;78.01;101158.00;5084340;28;20683;-83
2022/05/04 05:06:49;;;;;;;11.97;6.50;;;;;;;6.22;77.75;101150.81;5086518;28;20220;-82
2022/05/04 05:09:16;;;;;;;12.57;7.17;;;;;;;6.25;78.19;101148.94;5086916;28;20603;-83
2022/05/04 05:11:42;;;;;;;13.90;7.17;;;;;;;6.27;78.29;101152.34;5091768;28;20570;-82
2022/05/04 05:16:53;;;;;;;13.33;6.10;;;;;;;6.38;78.39;101167.84;5084826;28;20206;-83
2022/05/04 05:19:20;;;;;;;14.47;6.07;;;;;;;6.43;78.61;101165.03;5080970;28;20242;-82
2022/05/04 05:21:48;;;;;;;14.43;6.17;;;;;;;6.49;78.58;101156.84;5079225;28;20203;-82
2022/05/04 05:24:15;;;;;;;17.60;6.77;;;;;;;6.56;79.11;101163.63;5084752;28;20224;-82
2022/05/04 05:26:41;;;;;;;14.57;6.17;;;;;;;6.62;78.84;101168.69;5087493;28;20204;-82
2022/05/04 05:29:08;;;;;;;13.50;6.20;;;;;;;6.70;78.44;101156.00;5081633;28;20208;-83
2022/05/04 05:31:34;;;;;;;16.53;6.50;;;;;;;6.76;78.50;101161.09;5084262;28;20219;-82
2022/05/04 05:34:01;;;;;;;12.23;6.00;;;;;;;6.83;78.37;101151.09;5092784;28;20307;-81
2022/05/04 05:36:28;;;;;;;13.03;6.23;;;;;;;6.91;78.70;101157.81;5077719;28;20301;-82
2022/05/04 05:38:55;;;;;;;12.53;5.80;;;;;;;6.98;78.11;101161.09;5084026;28;20214;-83
2022/05/04 05:41:23;;;;;;;12.70;6.03;;;;;;;7.07;78.44;101165.13;5084626;28;20269;-82
2022/05/04 05:43:50;;;;;;;15.03;6.27;;;;;;;7.15;77.60;101163.06;5086412;28;20224;-81
2022/05/04 05:46:17;;;;;;;11.93;5.50;;;;;;;7.23;77.55;101155.63;5082859;28;20580;-81
2022/05/04 05:48:47;;;;;;;10.87;5.37;;;;;;;7.34;78.03;101152.56;5094141;28;20206;-82
2022/05/04 05:51:13;;;;;;;13.53;5.70;;;;;;;7.41;77.63;101149.56;5091390;28;20252;-83
2022/05/04 05:53:40;;;;;;;12.27;5.03;;;;;;;7.49;76.45;101152.78;5094814;28;20199;-83
2022/05/04 05:56:08;;;;;;;13.20;6.63;;;;;;;7.59;76.91;101155.88;5094570;28;20210;-82
2022/05/04 05:58:34;;;;;;;11.67;5.03;;;;;;;7.68;76.56;101163.44;5097653;28;20210;-85
2022/05/04 06:01:01;;;;;;;11.40;5.17;;;;;;;7.78;75.97;101158.59;5097633;28;20212;-82
2022/05/04 06:03:27;;;;;;;16.00;6.47;;;;;;;7.88;76.19;101155.44;5097660;28;20211;-84
2022/05/04 06:05:54;;;;;;;15.80;5.87;;;;;;;7.99;75.09;101155.00;5098208;28;20200;-84
2022/05/04 06:08:20;;;;;;;10.17;5.60;;;;;;;8.10;75.14;101146.53;5097178;28;20206;-83
2022/05/04 06:10:47;;;;;;;11.63;6.03;;;;;;;8.20;74.13;101156.69;5087108;28;20225;-85
2022/05/04 06:13:15;;;;;;;15.93;5.30;;;;;;;8.29;74.52;101150.94;5089208;28;20223;-83
2022/05/04 06:15:41;;;;;;;16.27;5.23;;;;;;;8.37;73.75;101152.44;5097901;28;20235;-84
2022/05/04 06:18:08;;;;;;;15.20;5.53;;;;;;;8.47;72.79;101151.91;5097097;28;20208;-83
2022/05/04 06:20:35;;;;;;;13.53;5.87;;;;;;;8.59;72.85;101150.50;5098229;28;20195;-84
2022/05/04 06:23:01;;;;;;;11.53;5.47;;;;;;;8.69;72.66;101155.28;5097583;28;20208;-84
2022/05/04 06:25:28;;;;;;;13.07;4.60;;;;;;;8.78;71.47;101147.84;5097723;28;20250;-84
2022/05/04 06:27:54;;;;;;;13.27;5.03;;;;;;;8.88;70.86;101146.44;5093577;28;20210;-84
2022/05/04 06:35:50;;;;;;;14.67;4.33;;;;;;;9.24;70.26;101151.75;5095382;28;20660;-84
2022/05/04 06:38:17;;;;;;;10.07;3.37;;;;;;;9.35;69.77;101160.03;5095174;28;20225;-84
2022/05/04 06:40:44;;;;;;;12.93;4.77;;;;;;;9.45;69.42;101156.00;5096068;28;20200;-82
2022/05/04 06:43:10;;;;;;;15.70;4.90;;;;;;;9.58;69.38;101151.78;5096358;28;20228;-83
2022/05/04 06:45:38;;;;;;;8.67;3.83;;;;;;;9.72;69.12;101154.56;5094461;28;20593;-84
2022/05/04 06:48:06;;;;;;;20.50;4.90;;;;;;;9.88;68.00;101153.78;5095011;28;20204;-84
2022/05/04 06:50:32;;;;;;;9.53;4.40;;;;;;;10.01;67.98;101155.72;5094807;28;20213;-83
2022/05/04 06:52:59;;;;;;;12.07;3.50;;;;;;;10.14;67.64;101152.41;5095622;28;20321;-85
2022/05/04 06:55:26;;;;;;;8.70;3.30;;;;;;;10.25;66.88;101158.03;5095198;28;20708;-84
2022/05/04 06:57:52;;;;;;;18.60;5.17;;;;;;;10.34;66.09;101152.22;5094311;28;20204;-83
2022/05/04 07:00:19;;;;;;;10.63;4.10;;;;;;;10.42;65.50;101150.84;5093816;28;20211;-82
2022/05/04 07:02:47;;;;;;;12.23;4.33;;;;;;;10.54;65.61;101153.81;5094369;28;20322;-84
2022/05/04 07:05:14;;;;;;;15.10;4.87;;;;;;;10.64;65.01;101158.53;5094886;28;20217;-84
2022/05/04 07:07:41;;;;;;;10.27;4.23;;;;;;;10.74;65.14;101150.91;5094045;28;20211;-85
2022/05/04 07:10:09;;;;;;;9.00;3.50;;;;;;;10.87;64.64;101154.56;5095596;28;20265;-82
2022/05/04 07:12:35;;;;;;;9.17;3.77;;;;;;;10.97;64.25;101150.44;5096285;28;20238;-83
2022/05/04 07:15:03;;;;;;;8.03;3.27;;;;;;;11.06;63.53;101149.91;5096084;28;20229;-84
2022/05/04 07:17:30;;;;;;;10.40;3.83;;;;;;;11.17;63.29;101156.44;5094564;28;20281;-83
2022/05/04 07:19:58;;;;;;;10.03;3.83;;;;;;;11.28;63.05;101157.53;5095002;28;20707;-83
2022/05/04 07:22:24;;;;;;;11.77;3.87;;;;;;;11.41;62.64;101149.69;5094905;28;20284;-83
2022/05/04 07:24:51;;;;;;;5.97;2.97;;;;;;;11.53;62.37;101151.63;5094997;28;20221;-83
2022/05/04 07:27:18;;;;;;;9.50;3.63;;;;;;;11.64;61.98;101151.84;5093319;28;20228;-84
2022/05/04 07:29:46;;;;;;;9.57;3.10;;;;;;;11.76;60.99;101151.13;5093981;28;20200;-85
2022/05/04 07:32:13;;;;;;;9.43;3.20;;;;;;;11.87;60.09;101141.59;5073605;28;20834;-85
2022/05/04 07:34:40;;;;;;;7.93;3.50;;;;;;;11.98;60.09;101140.03;5074579;28;20227;-83
2022/05/04 07:37:08;;;;;;;8.67;3.40;;;;;;;12.11;59.37;101148.13;5073911;28;20235;-85
2022/05/04 07:42:22;;;;;;;9.63;3.83;;;;;;;12.40;57.99;101144.47;5076556;28;20738;-84
2022/05/04 07:44:49;;;;;;;10.67;3.80;;;;;;;12.50;57.62;101144.78;5092820;28;20233;-85
2022/05/04 07:47:15;;;;;;;12.40;4.57;;;;;;;12.61;57.98;101139.59;5092669;28;20237;-84
2022/05/04 07:49:42;;;;;;;8.27;3.80;;;;;;;12.78;56.97;101149.19;5093789;28;20340;-83
2022/05/04 07:52:10;;;;;;;8.40;3.13;;;;;;;12.89;56.71;101152.06;5093169;28;20238;-83
2022/05/04 07:54:36;;;;;;;8.97;4.27;;;;;;;12.97;56.09;101141.69;5094193;28;20228;-84
2022/05/04 07:57:03;;;;;;;6.60;3.40;;;;;;;13.09;55.37;101151.59;5092290;28;20561;-83
2022/05/04 07:59:30;;;;;;;10.70;4.20;;;;;;;13.20;54.99;101145.56;5093029;28;20303;-84
2022/05/04 08:04:40;;;;;;;13.03;3.43;;;;;;;13.41;54.51;101143.28;5091095;28;20272;-84
2022/05/04 08:07:07;;;;;;;8.47;3.50;;;;;;;13.57;54.73;101146.63;5106425;28;20208;-86
2022/05/04 08:09:36;;;;;;;10.10;3.97;;;;;;;13.68;53.65;101146.75;5111166;28;20209;-84
2022/05/04 08:12:06;;;;;;;8.07;3.73;;;;;;;13.76;53.42;101141.75;5110293;28;20269;-85
2022/05/04 08:14:32;;;;;;;8.80;3.57;;;;;;;13.81;53.68;101136.91;5097205;28;20247;-84
2022/05/04 08:16:59;;;;;;;7.93;3.60;;;;;;;13.86;53.19;101140.13;5078065;28;20205;-84
2022/05/04 08:19:25;;;;;;;8.63;3.47;;;;;;;13.89;53.24;101134.56;5089893;28;20538;-84
2022/05/04 08:21:52;;;;;;;10.30;3.47;;;;;;;13.99;53.98;101128.56;5083981;28;20204;-84
2022/05/04 08:24:18;;;;;;;9.30;4.73;;;;;;;14.10;53.89;101132.22;5086453;28;20296;-85
2022/05/04 08:26:46;;;;;;;8.50;3.10;;;;;;;14.17;52.82;101137.97;5078771;28;20205;-84
2022/05/04 08:29:14;;;;;;;11.57;4.30;;;;;;;14.21;53.06;101139.50;5080613;28;20577;-83
2022/05/04 08:31:40;;;;;;;12.90;4.00;;;;;;;14.26;51.87;101132.00;5083444;28;20221;-84
2022/05/04 08:34:07;;;;;;;7.50;3.80;;;;;;;14.35;52.67;101133.16;5089278;28;20228;-85
2022/05/04 08:36:37;;;;;;;9.70;4.00;;;;;;;14.44;52.61;101133.38;5083392;28;20204;-84
2022/05/04 08:39:04;;;;;;;8.50;3.80;;;;;;;14.55;52.49;101129.94;5089158;28;20204;-84
2022/05/04 08:41:32;;;;;;;7.50;3.90;;;;;;;14.65;51.84;101132.81;5090404;28;20196;-84
2022/05/04 08:44:00;;;;;;;8.60;4.03;;;;;;;14.75;51.26;101128.47;5091089;28;20690;-84
2022/05/04 08:46:28;;;;;;;8.57;3.50;;;;;;;14.87;51.24;101132.94;5098104;28;20214;-84
2022/05/04 08:48:55;;;;;;;7.57;3.63;;;;;;;14.92;50.51;101128.94;5090423;28;20204;-84
2022/05/04 08:51:21;;;;;;;7.77;3.53;;;;;;;15.03;51.35;101135.38;5090871;28;20228;-84
2022/05/04 08:53:49;;;;;;;11.17;4.23;;;;;;;15.13;50.51;101133.69;5089181;28;20228;-85
2022/05/04 08:56:16;;;;;;;6.00;4.03;;;;;;;15.23;50.03;101129.34;5083465;28;20205;-84
2022/05/04 08:58:43;;;;;;;12.03;4.53;;;;;;;15.34;50.36;101134.78;5085955;28;20249;-85
2022/05/04 09:01:11;;;;;;;8.30;3.13;;;;;;;15.43;50.09;101128.69;5078761;28;20205;-84
2022/05/04 09:03:38;;;;;;;8.13;3.70;;;;;;;15.50;49.71;101124.59;5075463;28;20201;-84
2022/05/04 09:06:04;;;;;;;9.77;4.00;;;;;;;15.59;49.64;101125.72;5088301;28;20203;-85
2022/05/04 09:08:31;;;;;;;10.50;3.73;;;;;;;15.69;49.45;101121.38;5085519;28;20303;-84
2022/05/04 09:10:59;;;;;;;11.33;3.67;;;;;;;15.80;49.32;101107.97;5080331;28;20215;-84
2022/05/04 09:13:28;;;;;;;5.97;3.80;;;;;;;15.90;49.15;101108.97;5081888;28;20218;-82
2022/05/04 09:15:56;;;;;;;8.27;3.30;;;;;;;15.98;47.85;101109.22;5076015;28;20209;-82
2022/05/04 09:18:24;;;;;;;8.43;3.70;;;;;;;15.96;47.88;101105.78;5075687;28;20289;-83
2022/05/04 09:20:53;;;;;;;7.87;3.73;;;;;;;15.96;48.11;101107.63;5087086;28;20207;-83
2022/05/04 09:23:22;;;;;;;6.43;3.97;;;;;;;16.02;48.36;101100.91;5088383;28;20209;-84
2022/05/04 09:25:50;;;;;;;8.07;3.83;;;;;;;16.02;48.22;101101.75;5082735;28;20768;-84
2022/05/04 09:28:19;;;;;;;9.33;4.03;;;;;;;16.08;48.49;101100.44;5079346;28;20201;-83
2022/05/04 09:30:48;;;;;;;9.60;3.80;;;;;;;16.13;48.29;101101.75;5080453;28;20249;-84
2022/05/04 09:33:19;;;;;;;9.80;3.73;;;;;;;16.18;48.13;101098.72;5085450;28;20217;-84
2022/05/04 09:35:48;;;;;;;8.93;4.27;;;;;;;16.23;47.87;101096.53;5081595;28;20592;-83
2022/05/04 09:46:56;;;;;;;9.60;3.97;;;;;;;16.50;48.15;101105.03;5085697;28;20257;-83
2022/05/04 09:49:33;;;;;;;5.77;3.70;;;;;;;16.57;47.56;101106.28;5094961;28;20199;-83
2022/05/04 09:52:06;;;;;;;10.20;4.60;;;;;;;16.60;47.51;101091.72;5095541;28;20227;-83
2022/05/04 09:54:36;;;;;;;10.00;4.00;;;;;;;16.71;47.87;101093.56;5095987;28;20230;-84
2022/05/04 09:57:08;;;;;;;9.27;4.00;;;;;;;16.81;47.11;101095.38;5095579;28;20665;-84
2022/05/04 09:59:36;;;;;;;7.07;4.10;;;;;;;16.90;46.72;101093.75;5096341;28;20692;-84
2022/05/04 10:02:13;;;;;;;11.63;4.80;;;;;;;16.95;46.23;101091.53;5095888;28;20211;-84
2022/05/04 10:04:42;;;;;;;10.90;4.23;;;;;;;17.02;46.87;101087.34;5095114;28;20271;-84
2022/05/04 10:07:13;;;;;;;8.47;4.47;;;;;;;17.06;46.45;101091.50;5104770;28;20199;-84
2022/05/04 10:09:47;;;;;;;8.03;4.23;;;;;;;17.10;46.69;101084.88;5092217;28;20203;-82
2022/05/04 10:12:18;;;;;;;6.50;4.20;;;;;;;17.16;46.34;101076.31;5094808;28;20228;-84
2022/05/04 10:14:46;;;;;;;6.93;3.87;;;;;;;17.22;46.55;101073.06;5086021;28;20593;-83
2022/05/04 10:17:21;;;;;;;10.87;3.87;;;;;;;17.32;46.38;101073.16;5090754;28;20210;-82
2022/05/04 10:19:54;;;;;;;22.67;5.10;;;;;;;17.39;46.01;101071.63;5096306;28;20549;-79
2022/05/04 10:22:30;;;;;;;7.10;4.43;;;;;;;17.46;46.06;101069.28;5096701;28;20850;-79
2022/05/04 10:25:03;;;;;;;6.47;4.70;;;;;;;17.54;45.98;101073.06;5095247;28;20252;-83
2022/05/04 10:27:42;;;;;;;7.50;4.43;;;;;;;17.65;45.98;101061.38;5086984;28;20193;-83
2022/05/04 10:32:58;;;;;;;7.03;4.27;;;;;;;17.82;45.39;101055.38;5093081;28;20213;-83
2022/05/04 10:35:33;;;;;;;9.83;4.80;;;;;;;17.87;45.49;101057.66;5080835;28;20224;-84
2022/05/04 10:38:21;;;;;;;9.37;4.40;;;;;;;17.95;45.51;101053.31;5082996;28;20209;-84
2022/05/04 10:40:54;;;;;;;9.33;4.77;;;;;;;18.06;45.23;101062.31;5085534;28;20467;-82
2022/05/04 10:43:47;;;;;;;8.33;5.07;;;;;;;18.12;45.01;101059.03;5079960;28;20232;-83
2022/05/04 10:46:18;;;;;;;6.73;4.13;;;;;;;18.15;45.08;101054.25;5085062;28;20199;-83
2022/05/04 10:48:50;;;;;;;10.17;4.80;;;;;;;18.19;44.97;101044.03;5080717;28;20280;-82
2022/05/04 10:51:22;;;;;;;9.10;4.83;;;;;;;18.20;44.57;101056.53;5079595;28;20649;-83
2022/05/04 10:53:59;;;;;;;8.20;4.57;;;;;;;18.20;44.68;101049.31;5081779;28;20235;-82
2022/05/04 10:56:35;;;;;;;6.67;4.23;;;;;;;18.27;45.00;101053.13;5083856;28;20205;-82
2022/05/04 10:59:02;;;;;;;9.07;4.10;;;;;;;18.37;44.75;101050.50;5083660;28;20206;-83
2022/05/04 11:01:31;;;;;;;10.67;4.53;;;;;;;18.44;44.56;101040.03;5079154;28;20225;-83
2022/05/04 11:04:20;;;;;;;8.70;4.60;;;;;;;18.50;44.33;101040.28;5090175;22;20239;-74
2022/05/04 11:06:55;;;;;;;7.07;4.23;;;;;;;18.60;44.28;101043.91;5057270;28;20773;-74
2022/05/04 11:09:25;;;;;;;6.90;5.20;;;;;;;18.66;43.70;101034.38;5057072;28;20216;-74
2022/05/04 11:11:53;;;;;;;7.63;4.57;;;;;;;18.70;43.97;101035.81;5060014;28;20223;-74
2022/05/04 11:14:22;;;;;;;12.40;5.33;;;;;;;18.75;43.94;101041.66;5061758;28;20214;-74
2022/05/04 11:16:51;;;;;;;7.93;4.83;;;;;;;18.77;44.09;101036.13;5067037;28;20227;-72
2022/05/04 11:19:18;;;;;;;8.17;4.67;;;;;;;18.81;44.19;101032.16;5115574;22;20304;-83
2022/05/04 11:21:47;;;;;;;6.77;4.90;;;;;;;18.87;44.18;101026.19;5074750;28;20222;-84
2022/05/04 11:24:19;;;;;;;7.83;4.67;;;;;;;18.98;43.75;101023.34;5075673;28;20820;-82
2022/05/04 11:27:00;;;;;;;7.43;4.03;;;;;;;19.05;43.50;101019.06;5077572;28;20203;-83
2022/05/04 11:29:30;;;;;;;11.23;4.77;;;;;;;19.15;43.55;101014.53;5082608;28;20255;-83
2022/05/04 11:32:01;;;;;;;6.87;4.77;;;;;;;19.22;43.16;101004.84;5080393;28;20200;-84
2022/05/04 11:34:30;;;;;;;8.47;5.03;;;;;;;19.29;43.43;101016.78;5087548;28;20240;-83
2022/05/04 11:39:49;;;;;;;7.37;4.33;;;;;;;19.42;42.38;101013.78;5052890;28;20204;-82
2022/05/04 11:42:23;;;;;;;8.80;4.87;;;;;;;19.40;42.45;101013.91;5087826;28;20292;-82
2022/05/04 11:47:37;;;;;;;9.70;4.90;;;;;;;19.46;42.62;101009.78;5073443;28;20227;-84
2022/05/04 11:50:06;;;;;;;6.83;4.80;;;;;;;19.48;42.30;101006.94;5086797;28;20218;-82
2022/05/04 11:52:34;;;;;;;10.47;5.60;;;;;;;19.50;42.54;101007.69;5087063;28;20229;-84
2022/05/04 11:55:07;;;;;;;8.00;5.37;;;;;;;19.53;42.77;100996.56;5085580;28;20296;-83
2022/05/04 11:57:42;;;;;;;8.30;5.43;;;;;;;19.62;42.73;101001.09;5090050;28;20194;-83
2022/05/04 12:00:15;;;;;;;9.20;5.00;;;;;;;19.68;42.32;100989.72;5091977;28;20232;-83
2022/05/04 12:02:42;;;;;;;8.77;5.10;;;;;;;19.72;41.82;100997.38;5083136;28;20595;-82
2022/05/04 12:05:09;;;;;;;8.87;5.70;;;;;;;19.75;42.01;100996.22;5085268;28;20628;-86
2022/05/04 12:07:36;;;;;;;10.13;5.23;;;;;;;19.80;42.30;100983.13;5082876;28;20200;-82
2022/05/04 12:10:07;;;;;;;8.70;5.40;;;;;;;19.89;42.08;100987.63;5088028;28;20231;-86
2022/05/04 12:12:39;;;;;;;7.30;4.70;;;;;;;19.91;41.99;100985.63;5084554;28;20658;-84
2022/05/04 12:15:16;;;;;;;8.63;4.80;;;;;;;19.94;42.23;100985.34;5086603;28;20502;-86